createdAt,value
2023-08-11T00:02:24.609Z,81.96
2023-08-11T00:04:55.874Z,81.94
2023-08-11T00:07:26.461Z,82.01
2023-08-11T00:09:58.510Z,82.01
2023-08-11T00:12:29.117Z,82.51
2023-08-11T00:14:59.686Z,82.70
2023-08-11T00:17:30.852Z,82.97
2023-08-11T00:20:01.973Z,83.17
2023-08-11T00:22:32.547Z,83.10
2023-08-11T00:25:03.555Z,83.18
2023-08-11T00:27:34.102Z,83.21
2023-08-11T00:30:06.576Z,83.22
2023-08-11T00:32:37.417Z,83.36
2023-08-11T00:35:08.697Z,83.65
2023-08-11T00:37:39.570Z,83.62
2023-08-11T00:40:10.819Z,83.78
2023-08-11T00:42:43.554Z,84.01
2023-08-11T00:45:14.465Z,84.18
2023-08-11T00:47:46.424Z,84.34
2023-08-11T00:50:19.849Z,84.32
2023-08-11T00:52:51.598Z,84.53
2023-08-11T00:55:23.183Z,84.64
2023-08-11T00:57:55.159Z,84.88
2023-08-11T01:00:28.982Z,84.17
2023-08-11T01:03:01.148Z,83.42
2023-08-11T01:05:33.829Z,83.20
2023-08-11T01:08:19.270Z,83.39
2023-08-11T01:11:07.388Z,83.32
2023-08-11T01:13:41.053Z,83.43
2023-08-11T01:16:13.784Z,83.89
2023-08-11T01:18:45.275Z,84.13
2023-08-11T01:21:17.984Z,84.52
2023-08-11T01:23:50.237Z,84.85
2023-08-11T01:26:22.562Z,85.05
2023-08-11T01:28:55.598Z,85.14
2023-08-11T01:31:26.252Z,85.38
2023-08-11T01:33:56.904Z,85.55
2023-08-11T01:36:27.457Z,85.65
2023-08-11T01:38:59.562Z,85.70
2023-08-11T01:41:32.551Z,85.62
2023-08-11T01:44:03.630Z,85.68
2023-08-11T01:46:35.084Z,85.68
2023-08-11T01:49:06.138Z,85.76
2023-08-11T01:51:37.913Z,86.00
2023-08-11T01:54:11.625Z,85.96
2023-08-11T01:56:44.106Z,85.99
2023-08-11T01:59:19.139Z,85.96
2023-08-11T02:01:49.997Z,85.89
2023-08-11T02:04:20.714Z,86.06
2023-08-11T02:06:51.284Z,86.02
2023-08-11T02:09:22.446Z,85.87
2023-08-11T02:11:53.329Z,85.77
2023-08-11T02:14:25.642Z,85.61
2023-08-11T02:16:57.664Z,85.46
2023-08-11T02:19:28.459Z,84.73
2023-08-11T02:21:59.188Z,83.85
2023-08-11T02:24:30.037Z,83.46
2023-08-11T02:27:00.839Z,83.27
2023-08-11T02:29:31.489Z,83.10
2023-08-11T02:32:05.157Z,82.87
2023-08-11T02:34:36.174Z,82.54
2023-08-11T02:37:07.003Z,82.12
2023-08-11T02:39:40.426Z,81.02
2023-08-11T02:42:10.292Z,80.69
2023-08-11T02:44:43.150Z,80.92
2023-08-11T02:47:16.116Z,80.41
2023-08-11T02:49:49.726Z,80.65
2023-08-11T02:52:21.274Z,80.32
2023-08-11T02:54:51.827Z,79.84
2023-08-11T02:57:22.384Z,80.05
2023-08-11T02:59:53.050Z,79.73
2023-08-11T03:02:23.641Z,79.28
2023-08-11T03:04:54.293Z,79.27
2023-08-11T03:07:24.893Z,78.71
2023-08-11T03:09:57.012Z,78.87
2023-08-11T03:12:29.083Z,78.23
2023-08-11T03:15:00.093Z,78.40
2023-08-11T03:17:30.671Z,78.84
2023-08-11T03:20:01.487Z,78.75
2023-08-11T03:22:33.790Z,78.69
2023-08-11T03:25:05.115Z,78.77
2023-08-11T03:27:35.991Z,78.27
2023-08-11T03:30:08.087Z,78.04
2023-08-11T03:32:42.509Z,78.11
2023-08-11T03:35:13.455Z,77.94
2023-08-11T03:37:43.961Z,78.19
2023-08-11T03:40:15.106Z,77.59
2023-08-11T03:42:45.605Z,77.18
2023-08-11T03:45:17.993Z,77.30
2023-08-11T03:47:48.651Z,76.82
2023-08-11T03:50:19.501Z,76.45
2023-08-11T03:52:50.118Z,76.61
2023-08-11T03:55:21.072Z,77.16
2023-08-11T03:57:52.950Z,77.59
2023-08-11T04:00:25.619Z,77.63
2023-08-11T04:02:56.226Z,77.85
2023-08-11T04:05:26.705Z,78.04
2023-08-11T04:07:59.373Z,78.20
2023-08-11T04:10:29.976Z,78.24
2023-08-11T04:13:00.779Z,78.10
2023-08-11T04:15:33.087Z,77.93
2023-08-11T04:18:03.891Z,77.65
2023-08-11T04:20:35.824Z,77.52
2023-08-11T04:23:06.372Z,77.58
2023-08-11T04:25:36.899Z,76.78
2023-08-11T04:28:07.659Z,75.99
2023-08-11T04:30:38.735Z,76.04
2023-08-11T04:33:09.674Z,76.67
2023-08-11T04:35:40.316Z,76.10
2023-08-11T04:38:11.063Z,76.55
2023-08-11T04:40:41.931Z,76.85
2023-08-11T04:43:12.488Z,76.29
2023-08-11T04:45:44.692Z,76.04
2023-08-11T04:48:15.212Z,75.79
2023-08-11T04:50:53.265Z,75.84
2023-08-11T04:53:24.308Z,76.10
2023-08-11T04:55:56.082Z,75.73
2023-08-11T04:58:27.027Z,75.96
2023-08-11T05:00:57.632Z,76.80
2023-08-11T05:03:28.417Z,76.27
2023-08-11T05:05:58.936Z,75.98
2023-08-11T05:08:30.036Z,75.30
2023-08-11T05:11:00.639Z,73.20
2023-08-11T05:13:31.312Z,66.39
2023-08-11T05:16:01.939Z,59.17
2023-08-11T05:18:42.821Z,56.12
2023-08-11T05:21:07.082Z,53.41
2023-08-11T05:23:37.878Z,51.04
2023-08-11T05:26:08.597Z,48.32
2023-08-11T05:28:42.124Z,44.84
2023-08-11T05:31:12.821Z,41.81
2023-08-11T05:33:43.249Z,38.78
2023-08-11T05:36:13.856Z,37.05
2023-08-11T05:38:44.466Z,38.89
2023-08-11T05:41:15.356Z,42.14
2023-08-11T05:43:47.923Z,45.24
2023-08-11T05:46:18.467Z,48.61
2023-08-11T05:48:49.552Z,52.27
2023-08-11T05:51:20.233Z,52.33
2023-08-11T05:53:53.120Z,54.00
2023-08-11T05:56:23.038Z,51.95
2023-08-11T05:58:53.624Z,49.70
2023-08-11T06:01:24.612Z,51.25
2023-08-11T06:03:55.301Z,52.55
2023-08-11T06:06:25.905Z,53.33
2023-08-11T06:08:57.233Z,56.01
2023-08-11T06:11:27.800Z,55.97
2023-08-11T06:13:58.384Z,55.77
2023-08-11T06:16:29.379Z,55.43
2023-08-11T06:19:01.572Z,56.55
2023-08-11T06:21:32.166Z,56.20
2023-08-11T06:24:04.193Z,55.86
2023-08-11T06:26:36.343Z,55.50
2023-08-11T06:29:06.960Z,57.90
2023-08-11T06:31:39.874Z,59.40
2023-08-11T06:34:11.037Z,58.62
2023-08-11T06:36:41.730Z,58.44
2023-08-11T06:39:12.435Z,59.55
2023-08-11T06:41:43.284Z,60.74
2023-08-11T06:44:13.816Z,59.19
2023-08-11T06:46:45.176Z,59.20
2023-08-11T06:49:15.786Z,60.02
2023-08-11T06:51:46.384Z,58.73
2023-08-11T06:54:17.092Z,58.66
2023-08-11T06:56:47.894Z,58.43
2023-08-11T06:59:18.786Z,57.34
2023-08-11T07:01:49.310Z,58.08
2023-08-11T07:04:20.905Z,57.83
2023-08-11T07:06:52.356Z,57.23
2023-08-11T07:09:23.011Z,57.97
2023-08-11T07:11:53.688Z,57.19
2023-08-11T07:14:24.161Z,57.34
2023-08-11T07:16:55.010Z,57.40
2023-08-11T07:19:25.634Z,56.86
2023-08-11T07:22:00.706Z,55.34
2023-08-11T07:24:31.494Z,56.11
2023-08-11T07:27:02.090Z,56.05
2023-08-11T07:29:32.609Z,55.96
2023-08-11T07:32:05.390Z,54.78
2023-08-11T07:34:37.669Z,53.90
2023-08-11T07:37:09.017Z,53.82
2023-08-11T07:39:39.960Z,52.81
2023-08-11T07:42:11.443Z,52.99
2023-08-11T07:44:41.965Z,52.35
2023-08-11T07:47:14.330Z,51.58
2023-08-11T07:49:45.625Z,50.21
2023-08-11T07:52:16.727Z,49.67
2023-08-11T07:54:47.337Z,48.96
2023-08-11T07:57:19.495Z,48.41
2023-08-11T07:59:50.576Z,48.24
2023-08-11T08:02:21.437Z,48.99
2023-08-11T08:04:57.560Z,48.94
2023-08-11T08:07:26.070Z,49.62
2023-08-11T08:09:56.879Z,49.74
2023-08-11T08:12:27.514Z,50.90
2023-08-11T08:14:58.542Z,51.89
2023-08-11T08:17:30.684Z,53.48
2023-08-11T08:20:01.439Z,54.34
2023-08-11T08:22:31.928Z,55.67
2023-08-11T08:25:08.814Z,55.26
2023-08-11T08:27:41.687Z,55.97
2023-08-11T08:30:13.525Z,55.73
2023-08-11T08:32:44.858Z,55.02
2023-08-11T08:35:15.520Z,54.64
2023-08-11T08:37:46.860Z,52.50
2023-08-11T08:40:19.160Z,53.11
2023-08-11T08:42:51.764Z,51.76
2023-08-11T08:45:24.553Z,53.07
2023-08-11T08:47:59.183Z,53.24
2023-08-11T08:50:30.694Z,53.75
2023-08-11T08:53:02.375Z,53.64
2023-08-11T08:55:33.357Z,54.08
2023-08-11T08:58:04.073Z,54.37
2023-08-11T09:00:35.348Z,54.83
2023-08-11T09:03:06.941Z,53.99
2023-08-11T09:05:38.521Z,53.58
2023-08-11T09:08:09.201Z,53.85
2023-08-11T09:10:40.651Z,52.45
2023-08-11T09:13:12.711Z,52.21
2023-08-11T09:15:44.445Z,52.37
2023-08-11T09:18:18.213Z,53.05
2023-08-11T09:20:50.319Z,53.54
2023-08-11T09:23:22.871Z,53.63
2023-08-11T09:25:56.286Z,53.00
2023-08-11T09:28:28.082Z,52.58
2023-08-11T09:30:59.637Z,52.08
2023-08-11T09:33:31.266Z,51.93
2023-08-11T09:36:03.971Z,52.49
2023-08-11T09:38:35.799Z,52.78
2023-08-11T09:41:09.942Z,52.59
2023-08-11T09:43:40.784Z,52.15
2023-08-11T09:46:18.775Z,51.40
2023-08-11T09:48:43.544Z,50.20
2023-08-11T09:51:14.311Z,49.42
2023-08-11T09:53:46.641Z,49.43
2023-08-11T09:56:20.722Z,49.49
2023-08-11T09:58:53.720Z,50.03
2023-08-11T10:01:24.851Z,50.57
2023-08-11T10:03:59.032Z,50.06
2023-08-11T10:06:32.010Z,51.03
2023-08-11T10:09:04.329Z,49.59
2023-08-11T10:11:37.519Z,48.63
2023-08-11T10:14:10.572Z,46.78
2023-08-11T10:16:41.879Z,46.71
2023-08-11T10:19:14.351Z,46.12
2023-08-11T10:21:45.302Z,46.89
2023-08-11T10:24:17.474Z,46.79
2023-08-11T10:26:49.076Z,46.40
2023-08-11T10:29:22.113Z,45.65
2023-08-11T10:32:00.241Z,46.50
2023-08-11T10:34:30.742Z,47.99
2023-08-11T10:37:02.735Z,49.16
2023-08-11T10:39:35.147Z,50.31
2023-08-11T10:42:05.567Z,50.52
2023-08-11T10:44:36.273Z,50.83
2023-08-11T10:47:07.417Z,50.09
2023-08-11T10:49:40.998Z,51.00
2023-08-11T10:52:16.933Z,51.51
2023-08-11T10:54:53.627Z,52.66
2023-08-11T10:57:25.920Z,51.90
2023-08-11T10:59:56.422Z,52.78
2023-08-11T11:02:27.004Z,52.40
2023-08-11T11:04:58.807Z,52.04
2023-08-11T11:07:31.109Z,51.38
2023-08-11T11:10:02.011Z,50.62
2023-08-11T11:12:35.153Z,50.86
2023-08-11T11:15:06.629Z,51.39
2023-08-11T11:17:37.265Z,50.78
2023-08-11T11:20:09.439Z,50.84
2023-08-11T11:22:39.997Z,51.35
2023-08-11T11:25:13.361Z,51.85
2023-08-11T11:27:44.448Z,51.84
2023-08-11T11:30:15.745Z,51.72
2023-08-11T11:32:49.175Z,51.28
2023-08-11T11:35:20.404Z,51.70
2023-08-11T11:37:50.980Z,52.15
2023-08-11T11:40:21.850Z,51.82
2023-08-11T11:42:52.587Z,52.02
2023-08-11T11:45:23.870Z,52.29
2023-08-11T11:47:56.310Z,52.60
2023-08-11T11:50:30.563Z,52.82
2023-08-11T11:53:01.220Z,52.70
2023-08-11T11:55:32.467Z,52.52
2023-08-11T11:58:04.730Z,51.63
2023-08-11T12:00:35.262Z,52.28
2023-08-11T12:03:06.188Z,52.04
2023-08-11T12:05:36.994Z,51.56
2023-08-11T12:08:26.991Z,52.57
2023-08-11T12:10:57.725Z,53.27
2023-08-11T12:13:28.674Z,52.60
2023-08-11T12:16:01.620Z,52.21
2023-08-11T12:18:32.920Z,52.41
2023-08-11T12:21:04.637Z,53.23
2023-08-11T12:23:35.374Z,52.72
2023-08-11T12:26:06.622Z,52.71
2023-08-11T12:28:37.353Z,52.55
2023-08-11T12:31:09.390Z,52.71
2023-08-11T12:33:41.753Z,53.04
2023-08-11T12:36:12.466Z,52.94
2023-08-11T12:38:43.041Z,53.03
2023-08-11T12:41:14.056Z,52.11
2023-08-11T12:43:44.677Z,51.90
2023-08-11T12:46:15.356Z,52.72
2023-08-11T12:48:46.336Z,52.58
2023-08-11T12:51:18.460Z,51.85
2023-08-11T12:53:49.073Z,52.65
2023-08-11T12:56:20.137Z,52.50
2023-08-11T12:58:50.722Z,52.19
2023-08-11T13:01:21.349Z,51.75
2023-08-11T13:03:52.751Z,51.50
2023-08-11T13:06:23.707Z,51.28
2023-08-11T13:08:55.701Z,51.71
2023-08-11T13:11:26.180Z,51.34
2023-08-11T13:13:57.273Z,52.27
2023-08-11T13:16:28.030Z,52.00
2023-08-11T13:18:58.628Z,52.28
2023-08-11T13:21:29.155Z,52.20
2023-08-11T13:24:03.658Z,52.34
2023-08-11T13:26:36.704Z,53.04
2023-08-11T13:29:07.347Z,52.96
2023-08-11T13:31:38.400Z,52.73
2023-08-11T13:34:09.130Z,52.02
2023-08-11T13:36:41.631Z,52.14
2023-08-11T13:39:12.292Z,52.37
2023-08-11T13:41:44.014Z,52.26
2023-08-11T13:44:14.706Z,52.12
2023-08-11T13:46:45.687Z,52.67
2023-08-11T13:49:16.398Z,51.89
2023-08-11T13:51:46.859Z,52.32
2023-08-11T13:54:22.040Z,52.51
2023-08-11T13:56:52.676Z,52.39
2023-08-11T13:59:24.857Z,52.58
2023-08-11T14:01:58.330Z,52.08
2023-08-11T14:04:28.885Z,52.43
2023-08-11T14:07:13.957Z,51.98
2023-08-11T14:09:31.733Z,51.83
2023-08-11T14:12:04.775Z,52.23
2023-08-11T14:14:35.462Z,52.49
2023-08-11T14:17:06.801Z,52.11
2023-08-11T14:19:38.849Z,51.78
2023-08-11T14:22:09.603Z,52.09
2023-08-11T14:24:40.467Z,52.00
2023-08-11T14:27:11.278Z,52.15
2023-08-11T14:29:41.924Z,52.37
2023-08-11T14:32:22.972Z,51.72
2023-08-11T14:34:46.051Z,52.04
2023-08-11T14:37:17.902Z,52.02
2023-08-11T14:39:48.852Z,52.63
2023-08-11T14:42:23.078Z,52.73
2023-08-11T14:44:53.652Z,52.52
2023-08-11T14:47:25.570Z,52.74
2023-08-11T14:49:56.270Z,52.56
2023-08-11T14:52:27.676Z,51.84
2023-08-11T14:54:58.491Z,52.20
2023-08-11T14:57:29.482Z,52.14
2023-08-11T15:00:00.086Z,51.72
2023-08-11T15:02:30.726Z,51.88
2023-08-11T15:05:02.164Z,51.78
2023-08-11T15:07:32.750Z,51.60
2023-08-11T15:10:04.233Z,51.34
2023-08-11T15:12:34.763Z,51.59
2023-08-11T15:15:06.222Z,51.63
2023-08-11T15:17:36.865Z,51.90
2023-08-11T15:20:09.719Z,52.37
2023-08-11T15:22:40.327Z,52.29
2023-08-11T15:25:11.170Z,52.81
2023-08-11T15:27:41.693Z,52.73
2023-08-11T15:30:13.472Z,53.40
2023-08-11T15:32:44.935Z,53.32
2023-08-11T15:35:18.498Z,52.74
2023-08-11T15:37:49.177Z,52.81
2023-08-11T15:40:21.435Z,53.09
2023-08-11T15:42:51.970Z,52.99
2023-08-11T15:45:23.424Z,52.65
2023-08-11T15:47:54.030Z,52.57
2023-08-11T15:50:24.676Z,52.92
2023-08-11T15:52:55.181Z,52.72
2023-08-11T15:55:35.671Z,53.16
2023-08-11T15:57:57.895Z,53.18
2023-08-11T16:00:28.481Z,53.08
2023-08-11T16:03:00.993Z,53.13
2023-08-11T16:05:31.568Z,53.02
2023-08-11T16:08:02.083Z,53.28
2023-08-11T16:10:35.511Z,53.31
2023-08-11T16:13:08.855Z,52.97
2023-08-11T16:15:38.392Z,53.22
2023-08-11T16:18:10.858Z,53.08
2023-08-11T16:20:41.546Z,53.18
2023-08-11T16:23:12.803Z,53.46
2023-08-11T16:25:43.402Z,53.63
2023-08-11T16:28:16.355Z,53.67
2023-08-11T16:30:49.527Z,54.10
2023-08-11T16:33:20.086Z,54.06
2023-08-11T16:35:50.735Z,54.35
2023-08-11T16:38:24.493Z,54.26
2023-08-11T16:40:57.220Z,54.34
2023-08-11T16:43:27.863Z,54.51
2023-08-11T16:45:58.984Z,54.61
2023-08-11T16:48:29.518Z,55.20
2023-08-11T16:51:00.443Z,55.18
2023-08-11T16:53:31.040Z,54.55
2023-08-11T16:56:02.920Z,54.48
2023-08-11T16:58:33.418Z,54.60
2023-08-11T17:01:04.260Z,54.66
2023-08-11T17:03:36.709Z,54.29
2023-08-11T17:06:07.784Z,54.90
2023-08-11T17:08:38.398Z,55.03
2023-08-11T17:11:09.598Z,54.38
2023-08-11T17:13:40.093Z,51.08
2023-08-11T17:16:11.093Z,46.64
2023-08-11T17:18:43.354Z,44.50
2023-08-11T17:21:15.499Z,42.57
2023-08-11T17:23:48.479Z,41.06
2023-08-11T17:26:19.254Z,39.76
2023-08-11T17:28:52.073Z,39.15
2023-08-11T17:31:24.141Z,39.91
2023-08-11T17:33:56.352Z,40.50
2023-08-11T17:36:27.509Z,39.59
2023-08-11T17:38:59.231Z,39.40
2023-08-11T17:41:29.902Z,39.59
2023-08-11T17:44:00.375Z,41.12
2023-08-11T17:46:31.009Z,41.41
2023-08-11T17:49:01.624Z,42.47
2023-08-11T17:51:32.472Z,44.23
2023-08-11T17:54:09.723Z,47.20
2023-08-11T17:56:36.568Z,48.04
2023-08-11T17:59:07.566Z,48.90
2023-08-11T18:01:42.419Z,50.38
2023-08-11T18:04:14.761Z,51.59
2023-08-11T18:06:45.290Z,52.87
2023-08-11T18:09:15.820Z,53.75
2023-08-11T18:11:46.426Z,55.19
2023-08-11T18:14:17.358Z,56.15
2023-08-11T18:16:48.041Z,57.27
2023-08-11T18:19:18.764Z,57.62
2023-08-11T18:21:49.351Z,58.49
2023-08-11T18:24:19.836Z,58.46
2023-08-11T18:26:50.811Z,60.03
2023-08-11T18:29:22.070Z,60.65
2023-08-11T18:31:52.806Z,61.39
2023-08-11T18:34:23.369Z,61.86
2023-08-11T18:36:54.067Z,62.56
2023-08-11T18:39:24.680Z,62.55
2023-08-11T18:41:55.287Z,63.83
2023-08-11T18:44:25.995Z,64.54
2023-08-11T18:46:56.480Z,64.82
2023-08-11T18:49:29.973Z,64.93
2023-08-11T18:52:02.109Z,65.12
2023-08-11T18:54:32.932Z,66.05
2023-08-11T18:57:04.101Z,66.27
2023-08-11T18:59:34.676Z,66.49
2023-08-11T19:02:12.131Z,65.91
2023-08-11T19:04:37.572Z,65.87
2023-08-11T19:07:08.050Z,66.23
2023-08-11T19:09:38.591Z,66.39
2023-08-11T19:12:09.364Z,66.56
2023-08-11T19:14:40.434Z,66.62
2023-08-11T19:17:11.221Z,66.86
2023-08-11T19:19:42.020Z,66.85
2023-08-11T19:22:13.830Z,66.93
2023-08-11T19:24:44.308Z,66.25
2023-08-11T19:27:14.881Z,66.14
2023-08-11T19:29:45.386Z,66.62
2023-08-11T19:32:17.351Z,66.25
2023-08-11T19:34:47.867Z,67.04
2023-08-11T19:37:19.897Z,67.34
2023-08-11T19:39:50.606Z,67.52
2023-08-11T19:42:21.091Z,66.80
2023-08-11T19:44:51.776Z,67.46
2023-08-11T19:47:25.505Z,67.92
2023-08-11T19:49:56.014Z,68.62
2023-08-11T19:52:27.072Z,68.22
2023-08-11T19:54:57.567Z,68.09
2023-08-11T19:57:28.140Z,67.59
2023-08-11T19:59:58.962Z,68.36
2023-08-11T20:02:29.446Z,68.60
2023-08-11T20:05:00.542Z,67.00
2023-08-11T20:07:31.790Z,67.01
2023-08-11T20:10:04.481Z,66.15
2023-08-11T20:12:34.922Z,66.10
2023-08-11T20:15:06.335Z,66.18
2023-08-11T20:17:37.016Z,66.40
2023-08-11T20:20:08.538Z,66.47
2023-08-11T20:22:40.598Z,67.12
2023-08-11T20:25:11.346Z,67.61
2023-08-11T20:27:41.888Z,67.75
2023-08-11T20:30:14.268Z,67.60
2023-08-11T20:32:44.934Z,67.47
2023-08-11T20:35:15.632Z,67.71
2023-08-11T20:37:46.228Z,68.03
2023-08-11T20:40:16.994Z,68.55
2023-08-11T20:42:47.479Z,68.47
2023-08-11T20:45:18.761Z,69.35
2023-08-11T20:47:49.311Z,69.89
2023-08-11T20:50:20.803Z,68.62
2023-08-11T20:52:51.413Z,68.62
2023-08-11T20:55:21.946Z,68.42
2023-08-11T20:57:54.012Z,68.76
2023-08-11T21:00:24.889Z,69.38
2023-08-11T21:02:55.461Z,70.15
2023-08-11T21:05:26.325Z,68.78
2023-08-11T21:07:57.401Z,68.35
2023-08-11T21:10:29.717Z,68.43
2023-08-11T21:13:00.867Z,68.52
2023-08-11T21:15:31.408Z,68.64
2023-08-11T21:18:02.021Z,68.65
2023-08-11T21:20:32.776Z,69.29
2023-08-11T21:23:05.260Z,69.28
2023-08-11T21:25:37.454Z,69.70
2023-08-11T21:28:08.157Z,70.22
2023-08-11T21:30:40.156Z,70.19
2023-08-11T21:33:11.293Z,69.27
2023-08-11T21:35:42.386Z,69.60
2023-08-11T21:38:15.447Z,69.48
2023-08-11T21:40:45.165Z,69.37
2023-08-11T21:43:16.017Z,69.20
2023-08-11T21:45:47.728Z,69.20
2023-08-11T21:48:18.288Z,69.60
2023-08-11T21:50:48.725Z,70.15
2023-08-11T21:53:23.640Z,69.81
2023-08-11T21:55:52.214Z,70.50
2023-08-11T21:58:23.317Z,70.69
2023-08-11T22:00:53.897Z,71.12
2023-08-11T22:03:24.744Z,71.33
2023-08-11T22:05:56.725Z,71.40
2023-08-11T22:08:27.370Z,71.71
2023-08-11T22:10:58.088Z,71.83
2023-08-11T22:13:29.041Z,72.21
2023-08-11T22:15:59.743Z,71.99
2023-08-11T22:18:30.605Z,70.92
2023-08-11T22:21:04.694Z,71.41
2023-08-11T22:23:35.332Z,70.60
2023-08-11T22:26:05.865Z,71.43
2023-08-11T22:28:36.553Z,70.78
2023-08-11T22:31:07.066Z,70.77
2023-08-11T22:33:37.681Z,71.09
2023-08-11T22:36:08.637Z,71.09
2023-08-11T22:38:39.299Z,70.78
2023-08-11T22:41:10.162Z,70.50
2023-08-11T22:43:40.705Z,70.38
2023-08-11T22:46:11.418Z,70.18
2023-08-11T22:48:42.255Z,70.08
2023-08-11T22:51:12.956Z,69.83
2023-08-11T22:53:43.457Z,69.54
2023-08-11T22:56:14.104Z,69.35
2023-08-11T22:58:44.647Z,69.50
2023-08-11T23:01:16.058Z,69.67
2023-08-11T23:03:47.280Z,70.09
2023-08-11T23:06:22.162Z,69.98
2023-08-11T23:08:55.863Z,70.12
2023-08-11T23:11:26.446Z,69.77
2023-08-11T23:13:57.498Z,69.48
2023-08-11T23:16:29.846Z,69.35
2023-08-11T23:19:01.263Z,69.34
2023-08-11T23:21:31.732Z,69.34
2023-08-11T23:24:02.632Z,69.53
2023-08-11T23:26:35.761Z,69.50
2023-08-11T23:29:08.236Z,69.69
2023-08-11T23:31:43.105Z,69.49
2023-08-11T23:34:13.120Z,69.57
2023-08-11T23:36:43.752Z,69.65
2023-08-11T23:39:14.598Z,69.36
2023-08-11T23:41:45.648Z,69.55
2023-08-11T23:44:17.392Z,69.65
2023-08-11T23:46:51.051Z,69.89
2023-08-11T23:49:34.962Z,70.29
2023-08-11T23:52:07.776Z,70.67
2023-08-11T23:54:40.295Z,70.98
2023-08-11T23:57:12.268Z,70.96
2023-08-11T23:59:43.141Z,71.59
